createdAt,value
2023-01-08T00:00:14.194Z,66.31
2023-01-08T00:01:18.089Z,66.45
2023-01-08T00:02:20.214Z,66.52
2023-01-08T00:03:23.720Z,66.41
2023-01-08T00:04:27.020Z,66.32
2023-01-08T00:05:36.881Z,66.56
2023-01-08T00:06:39.193Z,66.33
2023-01-08T00:07:42.354Z,66.42
2023-01-08T00:08:46.092Z,66.40
2023-01-08T00:09:50.693Z,66.63
2023-01-08T00:10:54.855Z,66.53
2023-01-08T00:11:57.992Z,66.51
2023-01-08T00:13:00.110Z,66.46
2023-01-08T00:14:03.239Z,66.37
2023-01-08T00:15:06.743Z,66.42
2023-01-08T00:16:13.010Z,66.35
2023-01-08T00:17:15.240Z,66.39
2023-01-08T00:18:18.409Z,66.42
2023-01-08T00:19:21.591Z,66.20
2023-01-08T00:20:23.782Z,66.33
2023-01-08T00:21:27.042Z,66.50
2023-01-08T00:22:30.176Z,66.48
2023-01-08T00:23:32.585Z,66.08
2023-01-08T00:24:37.172Z,66.33
2023-01-08T00:25:39.654Z,66.26
2023-01-08T00:26:42.833Z,66.30
2023-01-08T00:27:45.406Z,66.32
2023-01-08T00:28:48.713Z,66.22
2023-01-08T00:29:50.821Z,66.36
2023-01-08T00:30:54.031Z,66.51
2023-01-08T00:31:56.184Z,66.33
2023-01-08T00:32:59.318Z,66.23
2023-01-08T00:34:01.493Z,66.45
2023-01-08T00:35:05.209Z,66.29
2023-01-08T00:36:08.740Z,66.42
2023-01-08T00:37:11.909Z,66.35
2023-01-08T00:38:14.146Z,66.32
2023-01-08T00:39:17.368Z,66.13
2023-01-08T00:40:20.913Z,66.35
2023-01-08T00:41:24.781Z,66.24
2023-01-08T00:42:26.918Z,66.31
2023-01-08T00:43:30.044Z,66.29
2023-01-08T00:44:32.167Z,66.04
2023-01-08T00:45:35.439Z,66.18
2023-01-08T00:46:37.641Z,66.12
2023-01-08T00:47:40.810Z,66.13
2023-01-08T00:48:42.960Z,65.91
2023-01-08T00:49:46.115Z,65.95
2023-01-08T00:50:48.446Z,66.05
2023-01-08T00:51:51.518Z,66.00
2023-01-08T00:52:53.966Z,66.10
2023-01-08T00:53:57.099Z,65.94
2023-01-08T00:54:59.245Z,66.02
2023-01-08T00:56:05.510Z,66.14
2023-01-08T00:57:07.664Z,66.06
2023-01-08T00:58:11.026Z,66.03
2023-01-08T00:59:14.338Z,66.10
2023-01-08T01:00:17.383Z,66.20
2023-01-08T01:01:20.643Z,66.22
2023-01-08T01:02:22.885Z,66.24
2023-01-08T01:03:26.259Z,66.21
2023-01-08T01:04:28.755Z,66.08
2023-01-08T01:05:31.957Z,66.42
2023-01-08T01:06:34.151Z,66.29
2023-01-08T01:07:37.833Z,66.37
2023-01-08T01:08:40.037Z,66.32
2023-01-08T01:09:43.211Z,66.37
2023-01-08T01:10:45.340Z,66.61
2023-01-08T01:11:49.871Z,66.33
2023-01-08T01:12:52.019Z,66.41
2023-01-08T01:13:56.776Z,66.54
2023-01-08T01:15:00.020Z,66.35
2023-01-08T01:16:02.974Z,66.42
2023-01-08T01:17:06.118Z,66.53
2023-01-08T01:18:08.779Z,66.52
2023-01-08T01:19:12.222Z,66.70
2023-01-08T01:20:16.485Z,66.56
2023-01-08T01:21:23.755Z,66.77
2023-01-08T01:22:25.927Z,66.58
2023-01-08T01:23:29.082Z,66.73
2023-01-08T01:24:31.208Z,66.79
2023-01-08T01:25:38.067Z,66.76
2023-01-08T01:26:41.217Z,66.93
2023-01-08T01:27:45.805Z,66.99
2023-01-08T01:28:49.664Z,66.93
2023-01-08T01:29:52.960Z,67.06
2023-01-08T01:30:56.214Z,67.04
2023-01-08T01:31:59.609Z,67.03
2023-01-08T01:33:01.793Z,67.09
2023-01-08T01:34:05.183Z,67.23
2023-01-08T01:35:08.165Z,67.15
2023-01-08T01:36:13.642Z,67.35
2023-01-08T01:37:16.696Z,67.45
2023-01-08T01:38:19.881Z,67.23
2023-01-08T01:39:22.020Z,67.28
2023-01-08T01:40:25.168Z,67.21
2023-01-08T01:41:29.885Z,67.34
2023-01-08T01:42:41.918Z,67.51
2023-01-08T01:43:45.456Z,67.37
2023-01-08T01:44:48.577Z,67.53
2023-01-08T01:45:50.818Z,67.38
2023-01-08T01:46:54.029Z,67.66
2023-01-08T01:47:59.840Z,67.72
2023-01-08T01:49:06.128Z,67.67
2023-01-08T01:50:11.664Z,67.54
2023-01-08T01:51:15.495Z,67.68
2023-01-08T01:52:17.667Z,67.62
2023-01-08T01:53:25.554Z,67.63
2023-01-08T01:54:29.573Z,67.50
2023-01-08T01:55:33.541Z,67.51
2023-01-08T01:56:35.667Z,67.68
2023-01-08T01:57:40.433Z,67.73
2023-01-08T01:58:42.601Z,67.95
2023-01-08T01:59:49.089Z,67.95
2023-01-08T02:00:52.585Z,67.85
2023-01-08T02:01:57.492Z,67.79
2023-01-08T02:03:00.354Z,67.73
2023-01-08T02:04:03.537Z,67.74
2023-01-08T02:05:07.031Z,67.93
2023-01-08T02:06:21.724Z,67.83
2023-01-08T02:07:29.920Z,67.73
2023-01-08T02:08:43.535Z,67.67
2023-01-08T02:09:52.031Z,67.88
2023-01-08T02:11:02.425Z,67.94
2023-01-08T02:12:17.388Z,67.96
2023-01-08T02:13:26.498Z,67.92
2023-01-08T02:14:35.692Z,68.01
2023-01-08T02:15:49.048Z,67.97
2023-01-08T02:16:58.339Z,68.04
2023-01-08T02:18:08.123Z,67.96
2023-01-08T02:19:20.115Z,68.16
2023-01-08T02:20:29.271Z,68.28
2023-01-08T02:21:37.545Z,68.22
2023-01-08T02:22:55.310Z,68.27
2023-01-08T02:24:04.383Z,68.34
2023-01-08T02:25:11.522Z,68.42
2023-01-08T02:26:25.289Z,68.24
2023-01-08T02:27:31.230Z,68.39
2023-01-08T02:28:39.251Z,68.52
2023-01-08T02:29:41.654Z,68.57
2023-01-08T02:30:46.549Z,68.53
2023-01-08T02:31:50.236Z,68.50
2023-01-08T02:32:52.366Z,68.61
2023-01-08T02:33:56.097Z,68.68
2023-01-08T02:34:58.262Z,68.71
2023-01-08T02:36:22.562Z,69.01
2023-01-08T02:37:26.220Z,68.68
2023-01-08T02:38:29.696Z,68.88
2023-01-08T02:40:08.479Z,68.99
2023-01-08T02:41:12.920Z,68.77
2023-01-08T02:42:25.067Z,68.81
2023-01-08T02:43:36.393Z,68.82
2023-01-08T02:44:51.925Z,68.75
2023-01-08T02:45:59.427Z,68.86
2023-01-08T02:47:05.701Z,69.11
2023-01-08T02:48:13.205Z,68.94
2023-01-08T02:49:17.291Z,69.03
2023-01-08T02:50:25.479Z,68.87
2023-01-08T02:51:30.873Z,69.16
2023-01-08T02:52:37.901Z,68.91
2023-01-08T02:53:43.888Z,68.98
2023-01-08T02:54:49.657Z,69.11
2023-01-08T02:55:56.385Z,69.13
2023-01-08T02:57:02.730Z,69.20
2023-01-08T02:58:07.354Z,69.11
2023-01-08T02:59:11.719Z,69.02
2023-01-08T03:00:16.355Z,69.14
2023-01-08T03:01:20.555Z,69.08
2023-01-08T03:02:24.417Z,69.27
2023-01-08T03:03:29.670Z,69.30
2023-01-08T03:04:37.724Z,69.34
2023-01-08T03:05:44.681Z,69.32
2023-01-08T03:06:47.155Z,69.42
2023-01-08T03:07:50.697Z,69.46
2023-01-08T03:08:53.972Z,69.52
2023-01-08T03:09:57.190Z,69.50
2023-01-08T03:11:04.642Z,69.47
2023-01-08T03:12:17.619Z,69.63
2023-01-08T03:13:24.789Z,69.49
2023-01-08T03:14:33.637Z,69.64
2023-01-08T03:15:42.226Z,69.80
2023-01-08T03:16:49.945Z,69.70
2023-01-08T03:17:56.138Z,69.72
2023-01-08T03:19:04.273Z,69.98
2023-01-08T03:20:10.404Z,69.91
2023-01-08T03:21:14.752Z,70.06
2023-01-08T03:22:18.140Z,70.10
2023-01-08T03:23:24.234Z,70.26
2023-01-08T03:24:30.234Z,70.25
2023-01-08T03:25:36.156Z,70.37
2023-01-08T03:26:41.517Z,70.47
2023-01-08T03:27:48.416Z,70.53
2023-01-08T03:28:55.284Z,70.57
2023-01-08T03:29:59.569Z,70.48
2023-01-08T03:31:03.807Z,70.63
2023-01-08T03:32:12.244Z,70.75
2023-01-08T03:33:16.897Z,70.93
2023-01-08T03:34:22.435Z,70.90
2023-01-08T03:35:26.777Z,71.01
2023-01-08T03:36:34.158Z,70.83
2023-01-08T03:37:39.793Z,70.98
2023-01-08T03:38:48.637Z,71.00
2023-01-08T03:39:56.189Z,71.00
2023-01-08T03:41:03.498Z,71.29
2023-01-08T03:42:10.180Z,71.34
2023-01-08T03:43:13.638Z,71.29
2023-01-08T03:44:17.325Z,71.19
2023-01-08T03:45:22.129Z,71.16
2023-01-08T03:46:30.661Z,71.38
2023-01-08T03:47:36.981Z,71.21
2023-01-08T03:48:41.003Z,71.26
2023-01-08T03:49:45.799Z,71.18
2023-01-08T03:50:48.524Z,71.06
2023-01-08T03:51:51.667Z,71.30
2023-01-08T03:52:53.849Z,71.23
2023-01-08T03:53:59.987Z,71.05
2023-01-08T03:55:02.239Z,71.17
2023-01-08T03:56:07.065Z,71.08
2023-01-08T03:57:09.182Z,71.17
2023-01-08T03:58:12.332Z,71.06
2023-01-08T03:59:15.325Z,71.13
2023-01-08T04:00:20.138Z,70.92
2023-01-08T04:01:22.388Z,71.13
2023-01-08T04:02:25.843Z,70.83
2023-01-08T04:03:28.023Z,70.75
2023-01-08T04:04:31.308Z,70.82
2023-01-08T04:05:33.667Z,70.79
2023-01-08T04:06:36.814Z,70.73
2023-01-08T04:07:38.952Z,70.59
2023-01-08T04:08:42.082Z,70.54
2023-01-08T04:09:44.259Z,70.77
2023-01-08T04:10:47.664Z,70.60
2023-01-08T04:11:49.937Z,70.59
2023-01-08T04:12:53.266Z,70.60
2023-01-08T04:13:55.820Z,70.56
2023-01-08T04:14:59.030Z,70.36
2023-01-08T04:16:02.627Z,70.39
2023-01-08T04:17:05.913Z,70.34
2023-01-08T04:18:09.067Z,70.29
2023-01-08T04:19:11.554Z,70.29
2023-01-08T04:20:14.804Z,70.13
2023-01-08T04:21:16.995Z,70.25
2023-01-08T04:22:20.136Z,70.39
2023-01-08T04:23:22.305Z,70.39
2023-01-08T04:24:25.722Z,70.26
2023-01-08T04:25:27.877Z,70.34
2023-01-08T04:26:30.991Z,70.26
2023-01-08T04:27:33.324Z,70.35
2023-01-08T04:28:37.390Z,70.27
2023-01-08T04:29:39.583Z,70.32
2023-01-08T04:30:42.707Z,70.57
2023-01-08T04:31:46.254Z,70.31
2023-01-08T04:32:49.377Z,70.48
2023-01-08T04:33:51.561Z,70.54
2023-01-08T04:34:54.825Z,70.53
2023-01-08T04:35:58.046Z,70.54
2023-01-08T04:37:01.940Z,70.67
2023-01-08T04:38:04.365Z,70.62
2023-01-08T04:39:08.903Z,70.75
2023-01-08T04:40:11.866Z,70.69
2023-01-08T04:41:15.032Z,70.86
2023-01-08T04:42:17.134Z,70.70
2023-01-08T04:43:20.344Z,70.89
2023-01-08T04:44:22.488Z,70.76
2023-01-08T04:45:25.795Z,70.74
2023-01-08T04:46:27.962Z,70.70
2023-01-08T04:47:32.550Z,70.72
2023-01-08T04:48:35.096Z,70.55
2023-01-08T04:49:38.280Z,70.80
2023-01-08T04:50:40.442Z,70.67
2023-01-08T04:51:43.586Z,70.79
2023-01-08T04:52:45.713Z,70.88
2023-01-08T04:53:48.936Z,70.67
2023-01-08T04:54:51.063Z,70.72
2023-01-08T04:55:54.422Z,70.70
2023-01-08T04:56:56.604Z,70.88
2023-01-08T04:57:59.751Z,70.97
2023-01-08T04:59:02.212Z,70.75
2023-01-08T05:00:06.356Z,70.93
2023-01-08T05:01:12.929Z,70.93
2023-01-08T05:02:16.305Z,70.85
2023-01-08T05:03:20.119Z,70.85
2023-01-08T05:04:23.374Z,70.80
2023-01-08T05:05:25.517Z,70.93
2023-01-08T05:06:30.664Z,70.90
2023-01-08T05:07:32.832Z,71.08
2023-01-08T05:08:36.289Z,71.13
2023-01-08T05:09:38.385Z,70.93
2023-01-08T05:10:41.536Z,70.96
2023-01-08T05:11:43.770Z,71.04
2023-01-08T05:12:46.919Z,70.93
2023-01-08T05:13:49.944Z,71.04
2023-01-08T05:14:53.130Z,71.07
2023-01-08T05:15:58.369Z,71.13
2023-01-08T05:17:01.554Z,71.07
2023-01-08T05:18:05.943Z,71.16
2023-01-08T05:19:10.607Z,71.29
2023-01-08T05:20:12.771Z,71.35
2023-01-08T05:21:16.144Z,71.24
2023-01-08T05:22:18.298Z,71.34
2023-01-08T05:23:21.461Z,71.44
2023-01-08T05:24:24.611Z,71.46
2023-01-08T05:25:26.897Z,71.53
2023-01-08T05:26:30.057Z,71.41
2023-01-08T05:27:32.180Z,71.55
2023-01-08T05:28:35.751Z,71.59
2023-01-08T05:29:37.862Z,71.80
2023-01-08T05:30:41.027Z,71.66
2023-01-08T05:31:44.237Z,71.74
2023-01-08T05:32:46.361Z,71.66
2023-01-08T05:33:49.576Z,71.59
2023-01-08T05:34:54.094Z,71.71
2023-01-08T05:35:56.601Z,71.93
2023-01-08T05:36:59.853Z,71.65
2023-01-08T05:38:02.006Z,71.83
2023-01-08T05:39:05.362Z,71.85
2023-01-08T05:40:08.443Z,71.67
2023-01-08T05:41:11.988Z,71.88
2023-01-08T05:42:14.110Z,71.80
2023-01-08T05:43:17.233Z,71.90
2023-01-08T05:44:20.480Z,71.60
2023-01-08T05:45:22.640Z,71.84
2023-01-08T05:46:25.779Z,71.82
2023-01-08T05:47:29.958Z,71.85
2023-01-08T05:48:34.990Z,71.90
2023-01-08T05:49:37.170Z,72.01
2023-01-08T05:50:41.757Z,71.95
2023-01-08T05:51:43.875Z,71.95
2023-01-08T05:52:47.010Z,71.98
2023-01-08T05:53:49.124Z,72.18
2023-01-08T05:54:52.270Z,72.15
2023-01-08T05:55:59.004Z,72.13
2023-01-08T05:57:02.170Z,72.03
2023-01-08T05:58:05.789Z,71.90
2023-01-08T05:59:08.898Z,72.12
2023-01-08T06:00:12.295Z,72.06
2023-01-08T06:01:16.916Z,72.13
2023-01-08T06:02:19.108Z,72.00
2023-01-08T06:03:22.319Z,72.29
2023-01-08T06:04:25.615Z,72.29
2023-01-08T06:05:27.910Z,72.31
2023-01-08T06:06:32.548Z,72.35
2023-01-08T06:07:34.756Z,72.37
2023-01-08T06:08:38.666Z,72.35
2023-01-08T06:09:40.860Z,72.13
2023-01-08T06:10:44.023Z,72.46
2023-01-08T06:11:46.414Z,72.46
2023-01-08T06:12:49.667Z,72.44
2023-01-08T06:13:51.864Z,72.57
2023-01-08T06:14:55.051Z,72.57
2023-01-08T06:15:59.458Z,72.70
2023-01-08T06:17:02.666Z,72.85
2023-01-08T06:18:05.278Z,73.02
2023-01-08T06:19:08.449Z,73.00
2023-01-08T06:20:12.040Z,72.95
2023-01-08T06:21:15.355Z,72.88
2023-01-08T06:22:18.873Z,73.05
2023-01-08T06:23:22.058Z,72.96
2023-01-08T06:24:24.250Z,72.95
2023-01-08T06:25:27.448Z,73.05
2023-01-08T06:26:29.594Z,72.75
2023-01-08T06:27:32.796Z,72.88
2023-01-08T06:28:35.749Z,72.85
2023-01-08T06:29:38.928Z,72.96
2023-01-08T06:30:41.194Z,73.08
2023-01-08T06:31:44.449Z,73.09
2023-01-08T06:32:46.593Z,73.19
2023-01-08T06:33:50.616Z,73.19
2023-01-08T06:34:52.787Z,73.31
2023-01-08T06:35:56.001Z,73.17
2023-01-08T06:36:58.251Z,73.16
2023-01-08T06:38:02.879Z,73.15
2023-01-08T06:39:05.984Z,73.31
2023-01-08T06:40:10.224Z,73.34
2023-01-08T06:41:12.435Z,73.22
2023-01-08T06:42:15.638Z,73.41
2023-01-08T06:43:18.023Z,73.41
2023-01-08T06:44:21.617Z,73.30
2023-01-08T06:45:23.785Z,73.16
2023-01-08T06:46:27.380Z,73.42
2023-01-08T06:47:29.607Z,73.13
2023-01-08T06:48:32.892Z,73.22
2023-01-08T06:49:35.096Z,73.29
2023-01-08T06:50:38.332Z,73.38
2023-01-08T06:51:40.532Z,73.21
2023-01-08T06:52:43.660Z,73.26
2023-01-08T06:53:49.480Z,73.12
2023-01-08T06:54:52.734Z,73.13
2023-01-08T06:55:57.154Z,73.26
2023-01-08T06:57:00.363Z,73.02
2023-01-08T06:58:02.590Z,73.11
2023-01-08T06:59:05.761Z,73.00
2023-01-08T07:00:10.052Z,73.05
2023-01-08T07:01:15.370Z,73.21
2023-01-08T07:02:19.983Z,72.95
2023-01-08T07:03:22.401Z,73.09
2023-01-08T07:04:25.718Z,73.05
2023-01-08T07:05:27.959Z,73.22
2023-01-08T07:06:31.138Z,72.91
2023-01-08T07:07:33.629Z,73.26
2023-01-08T07:08:36.810Z,73.33
2023-01-08T07:09:40.444Z,73.17
2023-01-08T07:10:43.799Z,73.18
2023-01-08T07:11:46.053Z,73.30
2023-01-08T07:12:49.511Z,73.18
2023-01-08T07:13:52.333Z,73.22
2023-01-08T07:14:55.593Z,73.44
2023-01-08T07:15:57.866Z,73.35
2023-01-08T07:17:01.118Z,73.26
2023-01-08T07:18:05.959Z,73.43
2023-01-08T07:19:09.402Z,73.44
2023-01-08T07:20:11.851Z,73.54
2023-01-08T07:21:15.065Z,73.35
2023-01-08T07:22:17.221Z,73.32
2023-01-08T07:23:20.511Z,73.44
2023-01-08T07:24:22.770Z,73.37
2023-01-08T07:25:27.335Z,73.48
2023-01-08T07:26:29.528Z,73.16
2023-01-08T07:27:32.744Z,73.37
2023-01-08T07:28:35.192Z,73.20
2023-01-08T07:29:38.409Z,73.14
2023-01-08T07:30:40.624Z,73.29
2023-01-08T07:31:43.893Z,73.23
2023-01-08T07:32:46.200Z,73.39
2023-01-08T07:33:49.467Z,73.29
2023-01-08T07:34:54.267Z,73.34
2023-01-08T07:35:57.962Z,73.26
2023-01-08T07:37:01.207Z,73.36
2023-01-08T07:38:04.481Z,73.54
2023-01-08T07:39:06.664Z,73.27
2023-01-08T07:40:11.919Z,73.39
2023-01-08T07:41:16.909Z,73.54
2023-01-08T07:42:20.098Z,73.46
2023-01-08T07:43:22.363Z,73.38
2023-01-08T07:44:25.601Z,73.46
2023-01-08T07:45:28.144Z,73.31
2023-01-08T07:46:31.716Z,73.33
2023-01-08T07:47:34.082Z,73.37
2023-01-08T07:48:37.278Z,73.37
2023-01-08T07:49:39.415Z,73.33
2023-01-08T07:50:43.386Z,73.35
2023-01-08T07:51:45.596Z,73.41
2023-01-08T07:52:48.779Z,73.46
2023-01-08T07:53:52.367Z,73.41
2023-01-08T07:54:54.573Z,73.36
2023-01-08T07:56:01.141Z,73.26
2023-01-08T07:57:05.688Z,73.51
2023-01-08T07:58:09.574Z,73.47
2023-01-08T07:59:12.971Z,73.31
2023-01-08T08:00:15.548Z,73.35
2023-01-08T08:01:19.051Z,73.43
2023-01-08T08:02:21.472Z,73.32
2023-01-08T08:03:25.762Z,73.45
2023-01-08T08:04:28.075Z,73.48
2023-01-08T08:05:31.332Z,73.40
2023-01-08T08:06:34.644Z,73.41
2023-01-08T08:07:36.876Z,73.28
2023-01-08T08:08:42.056Z,73.49
2023-01-08T08:09:45.579Z,73.53
2023-01-08T08:10:47.921Z,73.54
2023-01-08T08:11:51.089Z,73.40
2023-01-08T08:12:55.642Z,73.51
2023-01-08T08:13:59.261Z,73.54
2023-01-08T08:15:01.480Z,73.47
2023-01-08T08:16:05.796Z,73.90
2023-01-08T08:17:08.046Z,73.65
2023-01-08T08:18:11.639Z,74.25
2023-01-08T08:19:15.619Z,74.21
2023-01-08T08:20:19.072Z,74.48
2023-01-08T08:21:23.236Z,74.58
2023-01-08T08:22:25.440Z,74.56
2023-01-08T08:23:28.617Z,74.83
2023-01-08T08:24:30.762Z,75.10
2023-01-08T08:25:34.099Z,75.21
2023-01-08T08:26:37.287Z,75.30
2023-01-08T08:27:39.801Z,75.25
2023-01-08T08:28:44.415Z,75.61
2023-01-08T08:29:46.544Z,75.55
2023-01-08T08:30:49.827Z,75.61
2023-01-08T08:31:51.996Z,75.75
2023-01-08T08:32:55.920Z,75.96
2023-01-08T08:33:58.076Z,76.05
2023-01-08T08:35:01.564Z,76.13
2023-01-08T08:36:04.995Z,76.10
2023-01-08T08:37:08.979Z,76.10
2023-01-08T08:38:12.130Z,76.37
2023-01-08T08:39:14.508Z,76.35
2023-01-08T08:40:17.864Z,76.51
2023-01-08T08:41:21.027Z,76.46
2023-01-08T08:42:24.239Z,76.57
2023-01-08T08:43:27.420Z,76.46
2023-01-08T08:44:32.019Z,76.22
2023-01-08T08:45:35.199Z,76.32
2023-01-08T08:46:38.515Z,76.39
2023-01-08T08:47:40.773Z,76.44
2023-01-08T08:48:45.477Z,76.25
2023-01-08T08:49:47.643Z,76.39
2023-01-08T08:50:50.967Z,76.30
2023-01-08T08:51:53.441Z,76.43
2023-01-08T08:53:00.521Z,76.20
2023-01-08T08:54:03.713Z,76.24
2023-01-08T08:55:07.279Z,76.33
2023-01-08T08:56:10.529Z,76.23
2023-01-08T08:57:12.730Z,76.25
2023-01-08T08:58:15.855Z,76.31
2023-01-08T08:59:18.828Z,76.33
2023-01-08T09:00:26.926Z,76.26
2023-01-08T09:01:33.816Z,76.27
2023-01-08T09:02:39.268Z,76.56
2023-01-08T09:03:45.066Z,76.31
2023-01-08T09:04:56.955Z,76.57
2023-01-08T09:06:08.920Z,76.78
2023-01-08T09:07:21.034Z,76.82
2023-01-08T09:08:27.672Z,77.66
2023-01-08T09:09:30.280Z,77.41
2023-01-08T09:10:42.130Z,77.30
2023-01-08T09:11:50.821Z,77.49
2023-01-08T09:12:59.271Z,77.95
2023-01-08T09:14:04.587Z,77.85
2023-01-08T09:15:15.066Z,78.12
2023-01-08T09:16:20.275Z,78.48
2023-01-08T09:17:31.307Z,78.34
2023-01-08T09:18:51.559Z,78.37
2023-01-08T09:20:04.192Z,78.56
2023-01-08T09:21:14.259Z,78.68
2023-01-08T09:22:18.708Z,78.89
2023-01-08T09:23:25.781Z,79.07
2023-01-08T09:24:34.145Z,79.00
2023-01-08T09:25:49.011Z,79.06
2023-01-08T09:26:57.176Z,79.20
2023-01-08T09:28:07.300Z,79.23
2023-01-08T09:29:10.808Z,79.28
2023-01-08T09:30:19.166Z,79.24
2023-01-08T09:31:27.695Z,79.38
2023-01-08T09:32:39.705Z,79.24
2023-01-08T09:33:53.975Z,79.27
2023-01-08T09:34:59.022Z,79.48
2023-01-08T09:36:04.156Z,79.23
2023-01-08T09:37:12.868Z,79.23
2023-01-08T09:38:19.632Z,79.17
2023-01-08T09:39:26.203Z,79.45
2023-01-08T09:40:39.851Z,79.44
2023-01-08T09:41:47.288Z,79.42
2023-01-08T09:42:56.875Z,79.45
2023-01-08T09:44:03.002Z,79.47
2023-01-08T09:45:08.622Z,79.29
2023-01-08T09:46:13.708Z,79.35
2023-01-08T09:47:30.996Z,79.25
2023-01-08T09:48:38.618Z,79.27
2023-01-08T09:49:47.439Z,79.23
2023-01-08T09:50:53.528Z,79.37
2023-01-08T09:51:59.992Z,79.07
2023-01-08T09:53:15.490Z,79.07
2023-01-08T09:54:26.605Z,78.92
2023-01-08T09:55:35.883Z,78.92
2023-01-08T09:56:45.238Z,78.97
2023-01-08T09:57:53.227Z,78.80
2023-01-08T09:59:02.028Z,78.84
2023-01-08T10:00:16.116Z,78.66
2023-01-08T10:01:31.247Z,78.69
2023-01-08T10:02:40.400Z,78.18
2023-01-08T10:03:49.880Z,78.42
2023-01-08T10:05:05.643Z,78.44
2023-01-08T10:06:11.239Z,78.28
2023-01-08T10:07:21.511Z,78.28
2023-01-08T10:09:43.698Z,77.90
2023-01-08T10:10:51.530Z,77.94
2023-01-08T10:12:01.607Z,77.72
2023-01-08T10:13:06.038Z,77.81
2023-01-08T10:14:24.447Z,77.69
2023-01-08T10:15:31.516Z,77.61
2023-01-08T10:16:40.620Z,77.51
2023-01-08T10:17:53.501Z,77.35
2023-01-08T10:19:02.164Z,77.39
2023-01-08T10:20:15.728Z,77.21
2023-01-08T10:21:22.788Z,77.05
2023-01-08T10:22:34.398Z,76.87
2023-01-08T10:23:40.736Z,77.06
2023-01-08T10:24:57.004Z,76.84
2023-01-08T10:26:06.269Z,76.71
2023-01-08T10:27:15.648Z,76.45
2023-01-08T10:28:22.755Z,76.31
2023-01-08T10:29:30.437Z,76.38
2023-01-08T10:30:41.258Z,76.50
2023-01-08T10:31:54.223Z,76.45
2023-01-08T10:33:15.579Z,76.36
2023-01-08T10:34:35.019Z,76.40
2023-01-08T10:35:42.341Z,76.30
2023-01-08T10:36:47.073Z,76.18
2023-01-08T10:37:57.185Z,76.25
2023-01-08T10:39:04.156Z,75.95
2023-01-08T10:40:25.031Z,76.04
2023-01-08T10:41:31.773Z,75.86
2023-01-08T10:42:41.118Z,75.79
2023-01-08T10:43:56.447Z,75.35
2023-01-08T10:45:09.679Z,75.56
2023-01-08T10:46:23.151Z,75.45
2023-01-08T10:47:30.045Z,75.48
2023-01-08T10:48:38.478Z,75.28
2023-01-08T10:49:46.272Z,75.06
2023-01-08T10:50:50.538Z,74.94
2023-01-08T10:51:54.590Z,74.92
2023-01-08T10:53:11.687Z,75.10
2023-01-08T10:54:52.051Z,74.95
2023-01-08T10:56:04.016Z,75.08
2023-01-08T10:57:25.614Z,75.02
2023-01-08T10:58:43.973Z,74.96
2023-01-08T10:59:47.999Z,74.97
2023-01-08T11:01:12.548Z,74.92
2023-01-08T11:02:38.271Z,75.11
2023-01-08T11:03:50.970Z,74.98
2023-01-08T11:04:54.580Z,75.04
2023-01-08T11:06:08.349Z,74.96
2023-01-08T11:07:27.982Z,74.77
2023-01-08T11:08:35.051Z,75.00
2023-01-08T11:09:47.949Z,74.97
2023-01-08T11:10:56.440Z,75.03
2023-01-08T11:12:01.344Z,75.03
2023-01-08T11:13:07.268Z,75.12
2023-01-08T11:14:22.808Z,75.10
2023-01-08T11:15:40.409Z,75.00
2023-01-08T11:16:54.625Z,75.07
2023-01-08T11:18:27.598Z,75.34
2023-01-08T11:19:41.976Z,75.47
2023-01-08T11:20:46.765Z,75.49
2023-01-08T11:22:01.775Z,75.72
2023-01-08T11:23:13.302Z,75.69
2023-01-08T11:24:21.146Z,75.68
2023-01-08T11:25:31.559Z,75.79
2023-01-08T11:26:37.644Z,75.87
2023-01-08T11:27:49.508Z,76.06
2023-01-08T11:29:02.360Z,75.83
2023-01-08T11:30:19.396Z,75.95
2023-01-08T11:31:35.740Z,75.94
2023-01-08T11:32:47.556Z,76.14
2023-01-08T11:33:57.100Z,76.09
2023-01-08T11:35:24.198Z,76.04
2023-01-08T11:36:34.803Z,75.79
2023-01-08T11:37:41.687Z,75.96
2023-01-08T11:38:56.722Z,75.80
2023-01-08T11:40:06.088Z,75.72
2023-01-08T11:41:35.095Z,75.24
2023-01-08T11:42:52.499Z,75.39
2023-01-08T11:44:22.236Z,75.58
2023-01-08T11:45:40.332Z,75.33
2023-01-08T11:47:01.904Z,75.43
2023-01-08T11:48:31.241Z,75.26
2023-01-08T11:49:57.693Z,75.04
2023-01-08T11:51:24.191Z,75.09
2023-01-08T11:52:43.945Z,74.86
2023-01-08T11:54:00.267Z,74.66
2023-01-08T11:55:40.256Z,73.54
2023-01-08T11:57:12.361Z,73.95
2023-01-08T11:58:25.179Z,73.34
2023-01-08T11:59:40.826Z,72.44
2023-01-08T12:01:01.707Z,72.57
2023-01-08T12:02:19.381Z,72.58
2023-01-08T12:03:36.430Z,71.98
2023-01-08T12:05:23.116Z,71.30
2023-01-08T12:06:43.993Z,71.60
2023-01-08T12:07:55.669Z,71.59
2023-01-08T12:09:20.227Z,71.42
2023-01-08T12:10:30.915Z,71.34
2023-01-08T12:11:42.874Z,71.36
2023-01-08T12:12:58.618Z,70.84
2023-01-08T12:14:19.613Z,70.95
2023-01-08T12:15:39.520Z,70.58
2023-01-08T12:17:09.878Z,70.37
2023-01-08T12:18:28.708Z,70.16
2023-01-08T12:19:47.841Z,70.16
2023-01-08T12:21:04.633Z,70.28
2023-01-08T12:22:38.230Z,70.11
2023-01-08T12:24:06.795Z,69.88
2023-01-08T12:25:44.980Z,69.65
2023-01-08T12:26:57.441Z,69.58
2023-01-08T12:28:17.795Z,68.70
2023-01-08T12:29:43.941Z,68.95
2023-01-08T12:31:25.716Z,68.47
2023-01-08T12:32:36.307Z,68.70
2023-01-08T12:33:45.604Z,68.72
2023-01-08T12:34:57.520Z,68.49
2023-01-08T12:36:03.473Z,68.10
2023-01-08T12:37:17.053Z,68.43
2023-01-08T12:38:26.739Z,68.12
2023-01-08T12:39:33.914Z,67.92
2023-01-08T12:40:42.642Z,67.70
2023-01-08T12:41:47.133Z,67.40
2023-01-08T12:43:00.433Z,67.26
2023-01-08T12:44:06.102Z,67.21
2023-01-08T12:45:17.889Z,66.95
2023-01-08T12:46:23.328Z,67.15
2023-01-08T12:47:31.043Z,67.27
2023-01-08T12:48:36.656Z,67.07
2023-01-08T12:49:48.171Z,66.93
2023-01-08T12:51:03.033Z,66.99
2023-01-08T12:52:13.166Z,66.91
2023-01-08T12:53:28.025Z,67.01
2023-01-08T12:54:37.120Z,66.83
2023-01-08T12:55:46.018Z,66.73
2023-01-08T12:56:55.567Z,66.84
2023-01-08T12:58:10.358Z,66.97
2023-01-08T12:59:26.015Z,67.22
2023-01-08T13:00:38.952Z,67.34
2023-01-08T13:01:48.842Z,67.40
2023-01-08T13:02:59.127Z,67.49
2023-01-08T13:04:04.881Z,67.79
2023-01-08T13:05:15.932Z,67.56
2023-01-08T13:06:21.087Z,67.85
2023-01-08T13:07:30.510Z,67.88
2023-01-08T13:08:36.461Z,67.86
2023-01-08T13:09:40.772Z,68.05
2023-01-08T13:10:51.952Z,67.97
2023-01-08T13:11:57.592Z,68.32
2023-01-08T13:13:02.001Z,68.27
2023-01-08T13:14:07.290Z,68.48
2023-01-08T13:15:21.493Z,68.78
2023-01-08T13:16:25.533Z,68.88
2023-01-08T13:17:28.811Z,68.91
2023-01-08T13:18:32.481Z,68.95
2023-01-08T13:19:41.705Z,68.90
2023-01-08T13:20:56.830Z,69.20
2023-01-08T13:22:02.112Z,69.28
2023-01-08T13:23:07.083Z,69.16
2023-01-08T13:24:32.770Z,69.52
2023-01-08T13:25:37.951Z,69.62
2023-01-08T13:26:41.200Z,69.45
2023-01-08T13:27:44.866Z,69.37
2023-01-08T13:28:48.114Z,69.08
2023-01-08T13:29:51.732Z,68.75
2023-01-08T13:30:56.741Z,68.24
2023-01-08T13:31:59.128Z,67.32
2023-01-08T13:33:02.877Z,67.05
2023-01-08T13:34:20.322Z,66.16
2023-01-08T13:35:25.856Z,66.03
2023-01-08T13:36:30.464Z,65.96
2023-01-08T13:37:32.725Z,65.56
2023-01-08T13:38:36.028Z,65.63
2023-01-08T13:39:40.723Z,65.35
2023-01-08T13:40:57.597Z,64.89
2023-01-08T13:42:24.178Z,65.13
2023-01-08T13:43:31.495Z,65.58
2023-01-08T13:44:39.279Z,65.53
2023-01-08T13:45:42.451Z,65.76
2023-01-08T13:46:55.725Z,65.81
2023-01-08T13:47:59.095Z,65.95
2023-01-08T13:49:05.479Z,66.03
2023-01-08T13:50:20.669Z,65.94
2023-01-08T13:51:40.641Z,66.06
2023-01-08T13:52:46.373Z,66.36
2023-01-08T13:53:48.826Z,66.41
2023-01-08T13:54:55.483Z,66.32
2023-01-08T13:56:01.806Z,66.53
2023-01-08T13:57:12.105Z,66.50
2023-01-08T13:58:19.156Z,66.47
2023-01-08T13:59:35.248Z,66.74
2023-01-08T14:00:48.118Z,66.82
2023-01-08T14:01:54.513Z,66.93
2023-01-08T14:02:57.943Z,67.06
2023-01-08T14:04:01.311Z,66.92
2023-01-08T14:05:19.833Z,67.03
2023-01-08T14:06:25.783Z,67.12
2023-01-08T14:07:30.668Z,67.06
2023-01-08T14:08:33.333Z,67.06
2023-01-08T14:09:36.635Z,67.20
2023-01-08T14:10:41.313Z,67.34
2023-01-08T14:11:45.830Z,67.60
2023-01-08T14:12:50.099Z,67.72
2023-01-08T14:13:52.543Z,67.73
2023-01-08T14:14:59.872Z,67.53
2023-01-08T14:16:06.729Z,67.56
2023-01-08T14:17:16.802Z,67.17
2023-01-08T14:18:20.529Z,67.37
2023-01-08T14:19:26.673Z,67.24